Terminal Aerodrome Forecast
Issued by NWS

Home | Current Version | Previous Version | Text Only | Print | Product List | Glossary On
Versions: 1 2 3 4 5 6 7 8 9 10 11 12 13
364
FTUS46 KSTO 132320
TAFSAC
TAF
KSAC 132320Z 1400/1424 32007KT P6SM FEW250
     FM140800 VRB02KT 2SM BR SCT250
      TEMPO 1412/1416 1/4SM FG VV003
     FM141800 33010G15KT P6SM FEW250
     FM142000 33015G20KT P6SM FEW250=

USA.gov is the U.S. government's official web portal to all federal, state and local government web resources and services.